createdAt,value
2022-10-04T00:05:04.355Z,13.98
2022-10-04T00:10:32.049Z,12.48
2022-10-04T00:15:38.619Z,7.97
2022-10-04T00:20:55.754Z,14.57
2022-10-04T00:26:06.988Z,10.73
2022-10-04T00:31:13.987Z,10.93
2022-10-04T00:36:26.556Z,10.10
2022-10-04T00:41:29.740Z,18.65
2022-10-04T00:46:33.271Z,16.42
2022-10-04T00:51:46.833Z,11.93
2022-10-04T00:56:56.333Z,16.20
2022-10-04T01:02:17.280Z,17.63
2022-10-04T01:07:38.083Z,23.70
2022-10-04T01:12:53.816Z,28.02
2022-10-04T01:18:12.385Z,19.58
2022-10-04T01:23:45.108Z,10.95
2022-10-04T01:28:47.595Z,36.70
2022-10-04T01:33:50.224Z,14.50
2022-10-04T01:38:55.100Z,8.95
2022-10-04T01:44:01.158Z,18.23
2022-10-04T01:49:08.168Z,7.30
2022-10-04T01:54:14.410Z,11.02
2022-10-04T01:59:24.146Z,10.57
2022-10-04T02:04:36.024Z,13.32
2022-10-04T02:09:42.629Z,15.90
2022-10-04T02:14:55.841Z,13.40
2022-10-04T02:20:02.274Z,15.55
2022-10-04T02:25:23.379Z,10.95
2022-10-04T02:30:31.581Z,10.00
2022-10-04T02:35:43.482Z,13.45
2022-10-04T02:41:05.397Z,12.73
2022-10-04T02:46:13.986Z,14.57
2022-10-04T02:51:39.371Z,26.70
2022-10-04T02:56:42.392Z,14.82
2022-10-04T03:01:57.822Z,16.75
2022-10-04T03:07:02.286Z,13.05
2022-10-04T03:12:05.488Z,10.70
2022-10-04T03:17:08.601Z,13.63
2022-10-04T03:22:13.763Z,14.70
2022-10-04T03:27:21.622Z,14.30
2022-10-04T03:32:27.101Z,18.13
2022-10-04T03:37:32.259Z,14.15
2022-10-04T03:42:36.540Z,14.65
2022-10-04T03:47:41.813Z,22.65
2022-10-04T03:52:54.022Z,9.20
2022-10-04T03:57:57.159Z,15.68
2022-10-04T04:03:03.178Z,17.23
2022-10-04T04:08:12.284Z,10.13
2022-10-04T04:13:42.383Z,15.90
2022-10-04T04:18:45.659Z,14.77
2022-10-04T04:23:55.660Z,24.55
2022-10-04T04:29:30.319Z,19.50
2022-10-04T04:34:35.393Z,24.05
2022-10-04T04:39:38.177Z,11.05
2022-10-04T04:44:47.429Z,9.15
2022-10-04T04:49:50.125Z,16.67
2022-10-04T04:54:53.613Z,19.15
2022-10-04T04:59:59.402Z,16.88
2022-10-04T05:05:27.480Z,13.88
2022-10-04T05:10:35.252Z,11.25
2022-10-04T05:15:40.177Z,12.95
2022-10-04T05:20:49.442Z,17.63
2022-10-04T05:25:52.776Z,18.85
2022-10-04T05:31:04.600Z,15.00
2022-10-04T05:36:46.669Z,13.43
2022-10-04T05:42:07.934Z,21.53
2022-10-04T05:47:12.797Z,30.45
2022-10-04T05:57:37.805Z,19.90
2022-10-04T06:02:58.430Z,19.77
2022-10-04T06:08:22.659Z,19.52
2022-10-04T06:13:52.536Z,20.55
2022-10-04T06:19:16.998Z,27.40
2022-10-04T06:24:30.226Z,20.95
2022-10-04T06:29:38.534Z,35.70
2022-10-04T06:34:46.383Z,18.77
2022-10-04T06:39:53.555Z,35.08
2022-10-04T06:45:18.088Z,18.40
2022-10-04T06:56:18.767Z,17.33
2022-10-04T07:01:28.138Z,27.58
2022-10-04T07:06:47.835Z,52.10
2022-10-04T07:12:01.471Z,68.50
2022-10-04T07:17:22.443Z,120.65
2022-10-04T07:22:42.248Z,167.70
2022-10-04T07:28:15.144Z,172.50
2022-10-04T07:33:22.171Z,207.55
2022-10-04T07:38:28.930Z,215.35
2022-10-04T07:43:34.300Z,157.65
2022-10-04T07:48:40.752Z,56.15
2022-10-04T07:53:52.183Z,71.40
2022-10-04T07:59:22.458Z,79.72
2022-10-04T08:05:01.692Z,48.33
2022-10-04T08:10:22.598Z,69.57
2022-10-04T08:15:33.995Z,37.60
2022-10-04T08:20:49.604Z,77.00
2022-10-04T08:26:26.692Z,46.28
2022-10-04T08:32:02.853Z,41.28
2022-10-04T08:37:27.957Z,28.05
2022-10-04T08:43:05.942Z,34.55
2022-10-04T08:48:18.296Z,33.10
2022-10-04T08:53:27.137Z,42.55
2022-10-04T08:59:09.566Z,34.13
2022-10-04T09:04:36.346Z,30.30
2022-10-04T09:10:18.578Z,35.90
2022-10-04T09:15:31.477Z,23.35
2022-10-04T09:20:59.155Z,26.48
2022-10-04T09:26:33.265Z,32.08
2022-10-04T09:37:31.883Z,27.13
2022-10-04T09:42:40.249Z,23.33
2022-10-04T09:48:53.581Z,30.75
2022-10-04T09:54:15.767Z,29.35
2022-10-04T09:59:37.889Z,28.10
2022-10-04T10:05:00.361Z,26.08
2022-10-04T10:10:46.145Z,36.25
2022-10-04T10:16:28.169Z,25.13
2022-10-04T10:21:52.540Z,26.50
2022-10-04T10:27:30.771Z,24.90
2022-10-04T10:32:35.993Z,23.40
2022-10-04T10:37:50.265Z,21.40
2022-10-04T10:43:20.846Z,20.70
2022-10-04T10:48:54.331Z,20.42
2022-10-04T10:54:30.566Z,19.42
2022-10-04T11:00:10.562Z,22.15
2022-10-04T11:05:38.308Z,17.35
2022-10-04T11:11:03.354Z,21.52
2022-10-04T11:16:19.901Z,23.30
2022-10-04T11:21:44.284Z,23.48
2022-10-04T11:27:15.994Z,17.10
2022-10-04T11:32:19.366Z,21.38
2022-10-04T11:37:33.691Z,16.40
2022-10-04T11:43:13.700Z,19.10
2022-10-04T11:48:16.083Z,23.38
2022-10-04T11:53:52.718Z,14.75
2022-10-04T11:59:18.402Z,17.08
2022-10-04T12:04:51.531Z,21.92
2022-10-04T12:10:28.570Z,22.05
2022-10-04T12:15:35.185Z,20.80
2022-10-04T12:20:38.827Z,20.63
2022-10-04T12:26:19.510Z,24.17
2022-10-04T12:31:26.349Z,18.02
2022-10-04T12:37:06.436Z,18.73
2022-10-04T12:42:36.479Z,18.15
2022-10-04T12:47:54.152Z,18.50
2022-10-04T12:53:17.598Z,16.90
2022-10-04T12:58:30.611Z,19.05
2022-10-04T13:04:01.899Z,17.43
2022-10-04T13:09:10.314Z,15.63
2022-10-04T13:14:40.227Z,16.05
2022-10-04T13:20:19.367Z,16.98
2022-10-04T13:25:49.255Z,21.02
2022-10-04T13:31:10.382Z,15.63
2022-10-04T13:36:24.086Z,11.82
2022-10-04T13:46:47.404Z,12.60
2022-10-04T13:52:33.076Z,13.77
2022-10-04T13:58:15.192Z,14.15
2022-10-04T14:03:47.066Z,21.23
2022-10-04T14:09:27.179Z,13.40
2022-10-04T14:15:16.282Z,14.95
2022-10-04T14:20:38.062Z,13.95
2022-10-04T14:26:01.424Z,15.02
2022-10-04T14:31:17.744Z,14.98
2022-10-04T14:36:59.943Z,15.27
2022-10-04T14:42:21.768Z,17.60
2022-10-04T14:47:34.592Z,17.67
2022-10-04T14:52:58.827Z,16.08
2022-10-04T14:58:24.134Z,16.35
2022-10-04T15:03:30.728Z,18.17
2022-10-04T15:08:34.133Z,14.23
2022-10-04T15:13:58.771Z,22.13
2022-10-04T15:19:41.666Z,15.23
2022-10-04T15:24:47.004Z,15.07
2022-10-04T15:30:13.592Z,17.88
2022-10-04T15:35:42.536Z,17.77
2022-10-04T15:41:20.212Z,14.57
2022-10-04T15:46:29.330Z,23.85
2022-10-04T15:51:49.615Z,17.27
2022-10-04T15:57:18.312Z,24.52
2022-10-04T16:02:25.282Z,19.33
2022-10-04T16:07:36.158Z,15.07
2022-10-04T16:13:15.533Z,17.95
2022-10-04T16:18:40.502Z,17.58
2022-10-04T16:23:45.304Z,13.75
2022-10-04T16:29:04.687Z,14.48
2022-10-04T16:34:30.157Z,20.80
2022-10-04T16:40:05.918Z,19.10
2022-10-04T16:45:08.438Z,13.90
2022-10-04T16:50:13.113Z,20.50
2022-10-04T16:55:25.615Z,23.33
2022-10-04T17:00:38.464Z,14.40
2022-10-04T17:06:14.145Z,17.63
2022-10-04T17:11:39.243Z,17.10
2022-10-04T17:16:56.938Z,15.65
2022-10-04T17:22:23.607Z,19.10
2022-10-04T17:27:41.044Z,15.55
2022-10-04T17:33:07.880Z,29.48
2022-10-04T17:38:28.473Z,23.35
2022-10-04T17:43:52.005Z,22.58
2022-10-04T17:49:21.023Z,22.08
2022-10-04T17:54:56.933Z,26.02
2022-10-04T18:00:10.287Z,19.30
2022-10-04T18:05:23.795Z,21.33
2022-10-04T18:10:37.436Z,21.07
2022-10-04T18:15:50.166Z,25.85
2022-10-04T18:21:02.384Z,21.30
2022-10-04T18:26:11.376Z,23.25
2022-10-04T18:31:39.282Z,22.38
2022-10-04T18:36:59.385Z,23.80
2022-10-04T18:42:18.015Z,24.70
2022-10-04T18:47:34.574Z,24.90
2022-10-04T18:52:43.983Z,31.08
2022-10-04T18:58:39.169Z,30.98
2022-10-04T19:03:53.831Z,30.85
2022-10-04T19:09:09.110Z,26.92
2022-10-04T19:14:42.502Z,29.70
2022-10-04T19:20:22.619Z,22.35
2022-10-04T19:25:30.800Z,24.83
2022-10-04T19:30:59.542Z,20.83
2022-10-04T19:36:33.359Z,20.70
2022-10-04T19:41:50.295Z,21.02
2022-10-04T19:47:04.727Z,21.23
2022-10-04T19:52:45.019Z,23.33
2022-10-04T19:57:53.644Z,26.83
2022-10-04T20:02:56.408Z,23.58
2022-10-04T20:08:06.276Z,18.98
2022-10-04T20:13:21.360Z,25.13
2022-10-04T20:18:33.054Z,23.85
2022-10-04T20:23:41.671Z,19.20
2022-10-04T20:28:44.271Z,24.02
2022-10-04T20:33:47.994Z,19.83
2022-10-04T20:38:53.646Z,24.00
2022-10-04T20:44:07.113Z,19.88
2022-10-04T20:49:17.476Z,20.30
2022-10-04T20:54:22.548Z,24.40
2022-10-04T20:59:25.216Z,20.33
2022-10-04T21:04:31.931Z,27.15
2022-10-04T21:09:36.300Z,16.90
2022-10-04T21:14:38.847Z,17.83
2022-10-04T21:19:44.592Z,17.65
2022-10-04T21:24:49.849Z,18.58
2022-10-04T21:29:53.711Z,18.38
2022-10-04T21:34:56.508Z,18.17
2022-10-04T21:39:59.195Z,17.50
2022-10-04T21:45:01.674Z,17.50
2022-10-04T21:50:05.098Z,20.23
2022-10-04T21:55:10.572Z,16.50
2022-10-04T22:00:13.414Z,24.83
2022-10-04T22:05:16.305Z,23.58
2022-10-04T22:10:18.897Z,22.30
2022-10-04T22:15:23.904Z,17.85
2022-10-04T22:20:27.266Z,20.75
2022-10-04T22:25:29.880Z,24.27
2022-10-04T22:30:32.482Z,17.23
2022-10-04T22:35:36.128Z,23.33
2022-10-04T22:40:38.831Z,27.13
2022-10-04T22:45:43.435Z,24.48
2022-10-04T22:50:46.144Z,22.95
2022-10-04T22:55:49.982Z,22.10
2022-10-04T23:00:52.596Z,23.23
2022-10-04T23:05:55.205Z,26.65
2022-10-04T23:10:59.510Z,29.85
2022-10-04T23:16:11.804Z,24.83
2022-10-04T23:21:34.736Z,20.70
2022-10-04T23:26:41.820Z,25.27
2022-10-04T23:31:46.345Z,28.15
2022-10-04T23:41:53.969Z,25.60
2022-10-04T23:46:56.469Z,29.17
2022-10-04T23:52:01.957Z,25.33
2022-10-04T23:57:05.041Z,23.45
